createdAt,value
2017-03-31T00:00:09.573Z,1013.53
2017-03-31T00:00:50.097Z,1013.56
2017-03-31T00:01:30.625Z,1013.5
2017-03-31T00:02:11.139Z,1013.53
2017-03-31T00:02:51.626Z,1013.55
2017-03-31T00:03:32.126Z,1013.52
2017-03-31T00:04:12.655Z,1013.52
2017-03-31T00:04:53.165Z,1013.52
2017-03-31T00:05:33.688Z,1013.51
2017-03-31T00:06:14.217Z,1013.49
2017-03-31T00:06:54.731Z,1013.48
2017-03-31T00:07:35.247Z,1013.49
2017-03-31T00:08:15.755Z,1013.49
2017-03-31T00:08:56.303Z,1013.47
2017-03-31T00:09:36.800Z,1013.47
2017-03-31T00:10:17.313Z,1013.46
2017-03-31T00:10:57.814Z,1013.44
2017-03-31T00:11:38.326Z,1013.43
2017-03-31T00:12:18.834Z,1013.41
2017-03-31T00:12:59.347Z,1013.43
2017-03-31T00:13:39.877Z,1013.4
2017-03-31T00:14:20.397Z,1013.39
2017-03-31T00:15:00.894Z,1013.42
2017-03-31T00:15:41.416Z,1013.4
2017-03-31T00:16:21.928Z,1013.4
2017-03-31T00:17:02.440Z,1013.36
2017-03-31T00:17:42.955Z,1013.36
2017-03-31T00:18:23.472Z,1013.35
2017-03-31T00:19:03.989Z,1013.33
2017-03-31T00:19:44.502Z,1013.35
2017-03-31T00:20:25.005Z,1013.31
2017-03-31T00:21:05.551Z,1013.29
2017-03-31T00:21:46.046Z,1013.28
2017-03-31T00:22:26.563Z,1013.27
2017-03-31T00:23:07.062Z,1013.31
2017-03-31T00:23:47.590Z,1013.3
2017-03-31T00:24:28.084Z,1013.31
2017-03-31T00:25:08.616Z,1013.3
2017-03-31T00:25:49.117Z,1013.29
2017-03-31T00:26:29.627Z,1013.27
2017-03-31T00:27:10.133Z,1013.26
2017-03-31T00:27:50.633Z,1013.25
2017-03-31T00:28:31.159Z,1013.21
2017-03-31T00:29:11.670Z,1013.22
2017-03-31T00:29:52.191Z,1013.25
2017-03-31T00:30:32.703Z,1013.21
2017-03-31T00:31:13.232Z,1013.24
2017-03-31T00:31:53.732Z,1013.2
2017-03-31T00:32:34.263Z,1013.19
2017-03-31T00:33:14.763Z,1013.19
2017-03-31T00:33:55.272Z,1013.17
2017-03-31T00:34:35.783Z,1013.18
2017-03-31T00:35:16.271Z,1013.14
2017-03-31T00:35:56.771Z,1013.12
2017-03-31T00:36:37.294Z,1013.15
2017-03-31T00:37:17.806Z,1013.16
2017-03-31T00:37:58.366Z,1013.14
2017-03-31T00:38:38.855Z,1013.13
2017-03-31T00:39:19.365Z,1013.11
2017-03-31T00:39:59.879Z,1013.09
2017-03-31T00:40:40.384Z,1013.08
2017-03-31T00:41:20.903Z,1013.1
2017-03-31T00:42:01.399Z,1013.05
2017-03-31T00:42:41.894Z,1013.06
2017-03-31T00:43:22.411Z,1013.05
2017-03-31T00:44:02.928Z,1013.06
2017-03-31T00:44:43.434Z,1013.05
2017-03-31T00:45:23.939Z,1013.01
2017-03-31T00:46:04.487Z,1013.06
2017-03-31T00:46:44.979Z,1013
2017-03-31T00:47:25.502Z,1013.04
2017-03-31T00:48:06.008Z,1012.97
2017-03-31T00:48:46.529Z,1013
2017-03-31T00:49:27.068Z,1012.96
2017-03-31T00:50:07.568Z,1012.92
2017-03-31T00:50:48.078Z,1012.94
2017-03-31T00:51:28.590Z,1012.92
2017-03-31T00:52:09.117Z,1012.93
2017-03-31T00:52:49.621Z,1012.86
2017-03-31T00:53:30.143Z,1012.89
2017-03-31T00:54:10.633Z,1012.89
2017-03-31T00:54:51.143Z,1012.88
2017-03-31T00:55:31.658Z,1012.87
2017-03-31T00:56:12.170Z,1012.86
2017-03-31T00:56:52.690Z,1012.85
2017-03-31T00:57:33.208Z,1012.78
2017-03-31T00:58:13.727Z,1012.78
2017-03-31T00:58:54.219Z,1012.76
2017-03-31T00:59:34.723Z,1012.78
2017-03-31T01:00:15.254Z,1012.77
2017-03-31T01:00:55.739Z,1012.76
2017-03-31T01:01:36.237Z,1012.74
2017-03-31T01:02:16.769Z,1012.72
2017-03-31T01:02:57.261Z,1012.71
2017-03-31T01:03:37.771Z,1012.69
2017-03-31T01:04:18.272Z,1012.69
2017-03-31T01:04:58.796Z,1012.67
2017-03-31T01:05:39.315Z,1012.66
2017-03-31T01:06:19.837Z,1012.67
2017-03-31T01:07:00.367Z,1012.68
2017-03-31T01:07:40.970Z,1012.63
2017-03-31T01:08:21.484Z,1012.64
2017-03-31T01:09:02.057Z,1012.65
2017-03-31T01:09:42.581Z,1012.64
2017-03-31T01:10:23.113Z,1012.59
2017-03-31T01:11:03.615Z,1012.63
2017-03-31T01:11:44.126Z,1012.62
2017-03-31T01:12:24.647Z,1012.6
2017-03-31T01:13:05.171Z,1012.61
2017-03-31T01:13:45.689Z,1012.64
2017-03-31T01:14:26.202Z,1012.62
2017-03-31T01:15:06.712Z,1012.59
2017-03-31T01:15:47.239Z,1012.58
2017-03-31T01:16:27.745Z,1012.6
2017-03-31T01:17:08.257Z,1012.57
2017-03-31T01:17:48.767Z,1012.56
2017-03-31T01:18:29.295Z,1012.54
2017-03-31T01:19:09.805Z,1012.52
2017-03-31T01:19:50.331Z,1012.52
2017-03-31T01:20:30.840Z,1012.51
2017-03-31T01:21:11.369Z,1012.54
2017-03-31T01:21:51.878Z,1012.5
2017-03-31T01:22:32.393Z,1012.44
2017-03-31T01:23:12.917Z,1012.47
2017-03-31T01:23:53.420Z,1012.46
2017-03-31T01:24:33.929Z,1012.44
2017-03-31T01:25:14.431Z,1012.43
2017-03-31T01:25:54.964Z,1012.41
2017-03-31T01:26:35.481Z,1012.37
2017-03-31T01:27:16.011Z,1012.4
2017-03-31T01:27:56.516Z,1012.37
2017-03-31T01:28:37.011Z,1012.39
2017-03-31T01:29:17.524Z,1012.37
2017-03-31T01:29:58.034Z,1012.36
2017-03-31T01:30:38.564Z,1012.34
2017-03-31T01:31:19.078Z,1012.34
2017-03-31T01:31:59.592Z,1012.31
2017-03-31T01:32:40.100Z,1012.28
2017-03-31T01:33:20.606Z,1012.26
2017-03-31T01:34:01.121Z,1012.28
2017-03-31T01:34:41.646Z,1012.31
2017-03-31T01:35:22.172Z,1012.29
2017-03-31T01:36:02.688Z,1012.24
2017-03-31T01:36:43.202Z,1012.25
2017-03-31T01:37:23.820Z,1012.29
2017-03-31T01:38:04.258Z,1012.25
2017-03-31T01:38:44.771Z,1012.27
2017-03-31T01:39:25.272Z,1012.22
2017-03-31T01:40:05.794Z,1012.2
2017-03-31T01:40:46.321Z,1012.19
2017-03-31T01:41:26.848Z,1012.16
2017-03-31T01:42:07.364Z,1012.19
2017-03-31T01:42:47.886Z,1012.16
2017-03-31T01:43:28.404Z,1012.18
2017-03-31T01:44:08.905Z,1012.12
2017-03-31T01:44:49.403Z,1012.15
2017-03-31T01:45:29.903Z,1012.15
2017-03-31T01:46:10.408Z,1012.13
2017-03-31T01:46:50.926Z,1012.15
2017-03-31T01:47:31.431Z,1012.14
2017-03-31T01:48:11.951Z,1012.06
2017-03-31T01:48:52.439Z,1012.07
2017-03-31T01:49:32.939Z,1012.1
2017-03-31T01:50:13.456Z,1012.06
2017-03-31T01:50:53.980Z,1012.07
2017-03-31T01:51:34.496Z,1012.05
2017-03-31T01:52:15.016Z,1012.03
2017-03-31T01:52:55.524Z,1012.02
2017-03-31T01:53:36.047Z,1012.02
2017-03-31T01:54:16.566Z,1012.01
2017-03-31T01:54:57.082Z,1012
2017-03-31T01:55:37.585Z,1011.96
2017-03-31T01:56:18.111Z,1012.01
2017-03-31T01:56:58.622Z,1011.96
2017-03-31T01:57:39.147Z,1011.95
2017-03-31T01:58:19.690Z,1011.91
2017-03-31T01:59:00.174Z,1011.93
2017-03-31T01:59:40.675Z,1011.9
2017-03-31T02:00:21.200Z,1011.94
2017-03-31T02:01:01.761Z,1011.9
2017-03-31T02:01:42.248Z,1011.87
2017-03-31T02:02:22.745Z,1011.88
2017-03-31T02:03:03.270Z,1011.87
2017-03-31T02:03:43.788Z,1011.86
2017-03-31T02:04:24.297Z,1011.84
2017-03-31T02:05:04.784Z,1011.88
2017-03-31T02:05:45.301Z,1011.82
2017-03-31T02:06:25.818Z,1011.82
2017-03-31T02:07:06.317Z,1011.82
2017-03-31T02:07:46.838Z,1011.8
2017-03-31T02:08:27.333Z,1011.8
2017-03-31T02:09:07.844Z,1011.77
2017-03-31T02:09:50.004Z,1011.78
2017-03-31T02:10:30.523Z,1011.77
2017-03-31T02:11:11.036Z,1011.76
2017-03-31T02:11:51.568Z,1011.77
2017-03-31T02:12:32.078Z,1011.73
2017-03-31T02:13:12.599Z,1011.73
2017-03-31T02:13:53.159Z,1011.74
2017-03-31T02:14:33.632Z,1011.71
2017-03-31T02:15:14.130Z,1011.68
2017-03-31T02:15:54.654Z,1011.66
2017-03-31T02:16:35.156Z,1011.67
2017-03-31T02:17:15.685Z,1011.7
2017-03-31T02:17:56.182Z,1011.71
2017-03-31T02:18:36.716Z,1011.66
2017-03-31T02:19:17.239Z,1011.66
2017-03-31T02:19:57.784Z,1011.65
2017-03-31T02:20:38.319Z,1011.61
2017-03-31T02:21:18.828Z,1011.61
2017-03-31T02:21:59.326Z,1011.61
2017-03-31T02:22:39.854Z,1011.62
2017-03-31T02:23:20.362Z,1011.59
2017-03-31T02:24:00.886Z,1011.62
2017-03-31T02:24:41.411Z,1011.57
2017-03-31T02:25:21.926Z,1011.57
2017-03-31T02:26:02.438Z,1011.56
2017-03-31T02:26:42.927Z,1011.57
2017-03-31T02:27:23.459Z,1011.53
2017-03-31T02:28:03.978Z,1011.53
2017-03-31T02:28:44.475Z,1011.48
2017-03-31T02:29:24.984Z,1011.51
2017-03-31T02:30:05.500Z,1011.43
2017-03-31T02:30:46.014Z,1011.49
2017-03-31T02:31:26.527Z,1011.48
2017-03-31T02:32:07.056Z,1011.45
2017-03-31T02:32:47.558Z,1011.46
2017-03-31T02:33:28.065Z,1011.4
2017-03-31T02:34:08.567Z,1011.39
2017-03-31T02:34:49.087Z,1011.42
2017-03-31T02:35:29.608Z,1011.38
2017-03-31T02:36:10.109Z,1011.41
2017-03-31T02:36:50.629Z,1011.37
2017-03-31T02:37:31.132Z,1011.32
2017-03-31T02:38:11.674Z,1011.36
2017-03-31T02:38:52.193Z,1011.41
2017-03-31T02:39:32.698Z,1011.36
2017-03-31T02:40:13.224Z,1011.34
2017-03-31T02:40:53.733Z,1011.36
2017-03-31T02:41:34.237Z,1011.37
2017-03-31T02:42:14.749Z,1011.32
2017-03-31T02:42:55.287Z,1011.29
2017-03-31T02:43:35.761Z,1011.27
2017-03-31T02:44:16.289Z,1011.31
2017-03-31T02:44:56.814Z,1011.29
2017-03-31T02:45:37.331Z,1011.28
2017-03-31T02:46:17.839Z,1011.26
2017-03-31T02:46:58.365Z,1011.26
2017-03-31T02:47:38.891Z,1011.23
2017-03-31T02:48:19.395Z,1011.23
2017-03-31T02:48:59.923Z,1011.21
2017-03-31T02:49:40.467Z,1011.22
2017-03-31T02:50:20.997Z,1011.17
2017-03-31T02:51:01.495Z,1011.21
2017-03-31T02:51:42.003Z,1011.18
2017-03-31T02:52:22.511Z,1011.19
2017-03-31T02:53:03.041Z,1011.18
2017-03-31T02:53:43.563Z,1011.18
2017-03-31T02:54:24.073Z,1011.14
2017-03-31T02:55:04.604Z,1011.15
2017-03-31T02:55:45.134Z,1011.15
2017-03-31T02:56:25.642Z,1011.14
2017-03-31T02:57:06.142Z,1011.16
2017-03-31T02:57:46.697Z,1011.15
2017-03-31T02:58:27.214Z,1011.14
2017-03-31T02:59:07.723Z,1011.12
2017-03-31T02:59:48.261Z,1011.14
2017-03-31T03:00:28.770Z,1011.13
2017-03-31T03:01:09.307Z,1011.08
2017-03-31T03:01:49.843Z,1011.08
2017-03-31T03:02:30.345Z,1011.03
2017-03-31T03:03:10.861Z,1011.1
2017-03-31T03:03:51.390Z,1011.02
2017-03-31T03:04:31.890Z,1011
2017-03-31T03:05:12.418Z,1011.02
2017-03-31T03:05:52.960Z,1011.01
2017-03-31T03:06:33.456Z,1011
2017-03-31T03:07:13.976Z,1011.02
2017-03-31T03:07:54.500Z,1010.97
2017-03-31T03:08:35.021Z,1011.01
2017-03-31T03:09:15.543Z,1010.96
2017-03-31T03:09:56.048Z,1010.93
2017-03-31T03:10:36.579Z,1010.95
2017-03-31T03:11:17.103Z,1010.93
2017-03-31T03:11:57.681Z,1010.96
2017-03-31T03:12:38.225Z,1010.97
2017-03-31T03:13:18.733Z,1010.9
2017-03-31T03:13:59.284Z,1010.92
2017-03-31T03:14:39.842Z,1010.92
2017-03-31T03:15:20.329Z,1010.89
2017-03-31T03:16:00.858Z,1010.9
2017-03-31T03:16:41.400Z,1010.87
2017-03-31T03:17:21.927Z,1010.87
2017-03-31T03:18:02.423Z,1010.88
2017-03-31T03:18:42.935Z,1010.86
2017-03-31T03:19:23.456Z,1010.89
2017-03-31T03:20:03.960Z,1010.83
2017-03-31T03:20:44.458Z,1010.81
2017-03-31T03:21:24.966Z,1010.83
2017-03-31T03:22:05.481Z,1010.82
2017-03-31T03:22:46.023Z,1010.8
2017-03-31T03:23:26.551Z,1010.76
2017-03-31T03:24:07.056Z,1010.78
2017-03-31T03:24:47.567Z,1010.78
2017-03-31T03:25:28.082Z,1010.77
2017-03-31T03:26:08.574Z,1010.77
2017-03-31T03:26:49.090Z,1010.78
2017-03-31T03:27:29.610Z,1010.78
2017-03-31T03:28:10.106Z,1010.75
2017-03-31T03:28:50.641Z,1010.73
2017-03-31T03:29:31.152Z,1010.73
2017-03-31T03:30:11.656Z,1010.73
2017-03-31T03:30:52.181Z,1010.73
2017-03-31T03:31:32.690Z,1010.71
2017-03-31T03:32:13.219Z,1010.7
2017-03-31T03:32:53.749Z,1010.68
2017-03-31T03:33:34.255Z,1010.66
2017-03-31T03:34:14.771Z,1010.69
2017-03-31T03:34:55.287Z,1010.66
2017-03-31T03:35:35.802Z,1010.63
2017-03-31T03:36:16.318Z,1010.67
2017-03-31T03:36:56.831Z,1010.69
2017-03-31T03:37:37.386Z,1010.67
2017-03-31T03:38:17.886Z,1010.66
2017-03-31T03:38:58.422Z,1010.68
2017-03-31T03:39:38.924Z,1010.69
2017-03-31T03:40:19.440Z,1010.66
2017-03-31T03:40:59.964Z,1010.66
2017-03-31T03:41:40.472Z,1010.64
2017-03-31T03:42:20.999Z,1010.64
2017-03-31T03:43:01.530Z,1010.65
2017-03-31T03:43:42.047Z,1010.68
2017-03-31T03:44:22.550Z,1010.65
2017-03-31T03:45:03.075Z,1010.65
2017-03-31T03:45:43.588Z,1010.64
2017-03-31T03:46:24.121Z,1010.63
2017-03-31T03:47:04.633Z,1010.63
2017-03-31T03:47:45.176Z,1010.63
2017-03-31T03:48:25.673Z,1010.67
2017-03-31T03:49:06.193Z,1010.56
2017-03-31T03:49:46.721Z,1010.58
2017-03-31T03:50:27.250Z,1010.57
2017-03-31T03:51:07.738Z,1010.56
2017-03-31T03:51:48.230Z,1010.56
2017-03-31T03:52:28.740Z,1010.57
2017-03-31T03:53:09.315Z,1010.58
2017-03-31T03:53:49.825Z,1010.53
2017-03-31T03:54:30.330Z,1010.53
2017-03-31T03:55:10.846Z,1010.52
2017-03-31T03:55:51.380Z,1010.52
2017-03-31T03:56:31.916Z,1010.51
2017-03-31T03:57:12.451Z,1010.49
2017-03-31T03:57:52.923Z,1010.52
2017-03-31T03:58:33.430Z,1010.53
2017-03-31T03:59:13.944Z,1010.49
2017-03-31T03:59:54.464Z,1010.5
2017-03-31T04:00:35.060Z,1010.46
2017-03-31T04:01:15.699Z,1010.46
2017-03-31T04:01:56.219Z,1010.43
2017-03-31T04:02:36.711Z,1010.44
2017-03-31T04:03:17.225Z,1010.42
2017-03-31T04:03:57.739Z,1010.44
2017-03-31T04:04:38.236Z,1010.43
2017-03-31T04:05:18.756Z,1010.4
2017-03-31T04:05:59.279Z,1010.41
2017-03-31T04:06:39.834Z,1010.42
2017-03-31T04:07:20.345Z,1010.41
2017-03-31T04:08:00.943Z,1010.41
2017-03-31T04:08:41.690Z,1010.42
2017-03-31T04:09:22.479Z,1010.45
2017-03-31T04:10:03.180Z,1010.42
2017-03-31T04:10:43.986Z,1010.41
2017-03-31T04:11:24.751Z,1010.38
2017-03-31T04:12:05.518Z,1010.39
2017-03-31T04:12:46.260Z,1010.38
2017-03-31T04:13:27.090Z,1010.39
2017-03-31T04:14:07.903Z,1010.37
2017-03-31T04:14:48.684Z,1010.39
2017-03-31T04:15:29.522Z,1010.41
2017-03-31T04:16:11.021Z,1010.34
2017-03-31T04:16:51.531Z,1010.32
2017-03-31T04:17:32.052Z,1010.3
2017-03-31T04:18:12.549Z,1010.31
2017-03-31T04:18:53.060Z,1010.27
2017-03-31T04:19:33.599Z,1010.26
2017-03-31T04:20:14.103Z,1010.27
2017-03-31T04:20:54.614Z,1010.24
2017-03-31T04:21:35.196Z,1010.25
2017-03-31T04:22:15.713Z,1010.28
2017-03-31T04:22:56.194Z,1010.23
2017-03-31T04:23:36.711Z,1010.22
2017-03-31T04:24:17.201Z,1010.25
2017-03-31T04:24:57.706Z,1010.22
2017-03-31T04:25:38.247Z,1010.21
2017-03-31T04:26:18.781Z,1010.23
2017-03-31T04:26:59.296Z,1010.18
2017-03-31T04:27:39.798Z,1010.24
2017-03-31T04:28:20.306Z,1010.23
2017-03-31T04:29:00.822Z,1010.26
2017-03-31T04:29:41.351Z,1010.23
2017-03-31T04:30:21.860Z,1010.21
2017-03-31T04:31:02.401Z,1010.2
2017-03-31T04:31:42.924Z,1010.24
2017-03-31T04:32:23.457Z,1010.21
2017-03-31T04:33:03.940Z,1010.21
2017-03-31T04:33:44.442Z,1010.24
2017-03-31T04:34:25.011Z,1010.24
2017-03-31T04:35:05.530Z,1010.23
2017-03-31T04:35:46.043Z,1010.25
2017-03-31T04:36:26.582Z,1010.22
2017-03-31T04:37:07.157Z,1010.22
2017-03-31T04:37:47.645Z,1010.25
2017-03-31T04:38:28.299Z,1010.19
2017-03-31T04:39:08.884Z,1010.23
2017-03-31T04:39:49.399Z,1010.16
2017-03-31T04:40:29.914Z,1010.23
2017-03-31T04:41:10.461Z,1010.19
2017-03-31T04:41:52.020Z,1010.18
2017-03-31T04:42:32.569Z,1010.19
2017-03-31T04:43:13.089Z,1010.21
2017-03-31T04:43:53.662Z,1010.2
2017-03-31T04:44:34.228Z,1010.16
2017-03-31T04:45:14.803Z,1010.22
2017-03-31T04:45:55.355Z,1010.18
2017-03-31T04:48:15.043Z,1010.2
2017-03-31T04:48:55.516Z,1010.24
2017-03-31T04:49:36.025Z,1010.24
2017-03-31T04:50:16.550Z,1010.28
2017-03-31T04:50:57.061Z,1010.25
2017-03-31T04:51:37.544Z,1010.25
2017-03-31T04:52:18.045Z,1010.27
2017-03-31T04:52:58.569Z,1010.29
2017-03-31T04:53:39.059Z,1010.26
2017-03-31T04:54:19.592Z,1010.29
2017-03-31T04:55:00.064Z,1010.27
2017-03-31T04:55:40.576Z,1010.29
2017-03-31T04:56:21.112Z,1010.29
2017-03-31T04:57:01.630Z,1010.28
2017-03-31T04:57:42.145Z,1010.28
2017-03-31T04:58:22.670Z,1010.27
2017-03-31T04:59:03.151Z,1010.26
2017-03-31T04:59:43.795Z,1010.27
2017-03-31T05:00:24.317Z,1010.29
2017-03-31T05:01:04.931Z,1010.23
2017-03-31T05:01:45.431Z,1010.25
2017-03-31T05:02:25.939Z,1010.2
2017-03-31T05:03:06.460Z,1010.27
2017-03-31T05:03:46.964Z,1010.27
2017-03-31T05:04:27.476Z,1010.28
2017-03-31T05:05:07.995Z,1010.27
2017-03-31T05:05:48.504Z,1010.23
2017-03-31T05:06:29.030Z,1010.24
2017-03-31T05:07:09.527Z,1010.24
2017-03-31T05:07:50.044Z,1010.24
2017-03-31T05:08:30.560Z,1010.22
2017-03-31T05:09:11.078Z,1010.25
2017-03-31T05:09:51.603Z,1010.17
2017-03-31T05:10:32.125Z,1010.16
2017-03-31T05:11:12.630Z,1010.18
2017-03-31T05:11:53.178Z,1010.22
2017-03-31T05:12:33.678Z,1010.19
2017-03-31T05:13:14.185Z,1010.18
2017-03-31T05:13:54.732Z,1010.18
2017-03-31T05:14:35.303Z,1010.18
2017-03-31T05:15:15.830Z,1010.19
2017-03-31T05:15:56.358Z,1010.16
2017-03-31T05:16:36.881Z,1010.16
2017-03-31T05:17:17.394Z,1010.2
2017-03-31T05:17:57.925Z,1010.16
2017-03-31T05:18:38.463Z,1010.2
2017-03-31T05:19:18.974Z,1010.16
2017-03-31T05:19:59.517Z,1010.15
2017-03-31T05:20:40.028Z,1010.18
2017-03-31T05:21:20.543Z,1010.16
2017-03-31T05:22:01.071Z,1010.14
2017-03-31T05:22:41.586Z,1010.13
2017-03-31T05:23:22.108Z,1010.11
2017-03-31T05:24:02.802Z,1010.09
2017-03-31T05:24:43.349Z,1010.1
2017-03-31T05:25:23.865Z,1010.06
2017-03-31T05:26:04.382Z,1010.07
2017-03-31T05:26:44.876Z,1010.06
2017-03-31T05:27:25.424Z,1010.09
2017-03-31T05:28:05.954Z,1010.07
2017-03-31T05:28:46.461Z,1010.06
2017-03-31T05:29:26.954Z,1010.01
2017-03-31T05:30:07.462Z,1010.06
2017-03-31T05:30:47.959Z,1010.04
2017-03-31T05:31:28.468Z,1010.06
2017-03-31T05:32:08.985Z,1010.03
2017-03-31T05:32:49.480Z,1010.05
2017-03-31T05:33:29.986Z,1010.06
2017-03-31T05:34:10.491Z,1010
2017-03-31T05:34:51.007Z,1010.03
2017-03-31T05:35:31.562Z,1010.05
2017-03-31T05:36:12.035Z,1010.02
2017-03-31T05:36:52.613Z,1010.05
2017-03-31T05:37:33.112Z,1010.03
2017-03-31T05:38:13.658Z,1010.01
2017-03-31T05:38:54.142Z,1010.04
2017-03-31T05:39:34.666Z,1009.99
2017-03-31T05:40:15.185Z,1010.01
2017-03-31T05:40:55.712Z,1010.02
2017-03-31T05:41:36.210Z,1010.02
2017-03-31T05:42:16.742Z,1010.04
2017-03-31T05:42:57.947Z,1010
2017-03-31T05:43:38.459Z,1009.99
2017-03-31T05:44:19.001Z,1009.99
2017-03-31T05:44:59.544Z,1009.96
2017-03-31T05:45:40.078Z,1010
2017-03-31T05:46:20.621Z,1009.98
2017-03-31T05:47:01.294Z,1009.99
2017-03-31T05:47:42.059Z,1009.99
2017-03-31T05:48:22.619Z,1009.99
2017-03-31T05:49:03.169Z,1009.96
2017-03-31T05:49:43.655Z,1010.03
2017-03-31T05:50:24.184Z,1009.98
2017-03-31T05:51:04.717Z,1009.97
2017-03-31T05:51:45.230Z,1009.98
2017-03-31T05:52:25.737Z,1010.01
2017-03-31T05:53:06.271Z,1010
2017-03-31T05:53:46.777Z,1009.98
2017-03-31T05:54:27.273Z,1009.98
2017-03-31T05:55:07.819Z,1009.94
2017-03-31T05:55:48.366Z,1009.95
2017-03-31T05:56:28.858Z,1009.96
2017-03-31T05:57:09.395Z,1009.96
2017-03-31T05:57:49.924Z,1009.95
2017-03-31T05:58:30.443Z,1009.98
2017-03-31T05:59:10.984Z,1009.95
2017-03-31T05:59:51.492Z,1009.95
2017-03-31T06:00:33.825Z,1009.95
2017-03-31T06:01:14.331Z,1010
2017-03-31T06:01:54.862Z,1009.96
2017-03-31T06:02:35.388Z,1009.98
2017-03-31T06:03:15.899Z,1009.98
2017-03-31T06:03:56.421Z,1009.93
2017-03-31T06:04:36.964Z,1009.92
2017-03-31T06:05:17.530Z,1009.92
2017-03-31T06:05:58.066Z,1009.88
2017-03-31T06:06:38.611Z,1009.93
2017-03-31T06:07:19.139Z,1009.93
2017-03-31T06:07:59.638Z,1009.93
2017-03-31T06:08:40.164Z,1009.9
2017-03-31T06:09:20.649Z,1009.91
2017-03-31T06:10:01.181Z,1009.95
2017-03-31T06:10:41.715Z,1009.96
2017-03-31T06:11:22.259Z,1009.91
2017-03-31T06:12:02.788Z,1009.95
2017-03-31T06:12:43.290Z,1009.94
2017-03-31T06:13:23.796Z,1009.96
2017-03-31T06:14:04.337Z,1009.96
2017-03-31T06:14:44.850Z,1009.92
2017-03-31T06:15:25.360Z,1009.93
2017-03-31T06:16:05.895Z,1009.91
2017-03-31T06:16:46.409Z,1009.92
2017-03-31T06:17:26.936Z,1009.9
2017-03-31T06:18:07.473Z,1009.93
2017-03-31T06:18:48.014Z,1009.9
2017-03-31T06:19:28.538Z,1009.93
2017-03-31T06:20:09.039Z,1009.89
2017-03-31T06:20:49.567Z,1009.87
2017-03-31T06:21:30.070Z,1009.89
2017-03-31T06:22:10.602Z,1009.87
2017-03-31T06:22:51.130Z,1009.89
2017-03-31T06:23:31.666Z,1009.85
2017-03-31T06:24:12.185Z,1009.85
2017-03-31T06:24:52.691Z,1009.85
2017-03-31T06:25:33.237Z,1009.86
2017-03-31T06:26:13.761Z,1009.82
2017-03-31T06:26:54.290Z,1009.87
2017-03-31T06:27:34.811Z,1009.86
2017-03-31T06:28:15.357Z,1009.85
2017-03-31T06:28:55.872Z,1009.85
2017-03-31T06:29:36.421Z,1009.85
2017-03-31T06:30:16.946Z,1009.84
2017-03-31T06:30:57.492Z,1009.83
2017-03-31T06:31:38.018Z,1009.82
2017-03-31T06:32:18.546Z,1009.8
2017-03-31T06:32:59.075Z,1009.8
2017-03-31T06:33:39.613Z,1009.82
2017-03-31T06:34:20.140Z,1009.79
2017-03-31T06:35:00.666Z,1009.78
2017-03-31T06:35:41.181Z,1009.8
2017-03-31T06:36:21.735Z,1009.81
2017-03-31T06:37:02.281Z,1009.8
2017-03-31T06:37:42.816Z,1009.77
2017-03-31T06:38:23.342Z,1009.79
2017-03-31T06:39:03.877Z,1009.83
2017-03-31T06:39:44.393Z,1009.8
2017-03-31T06:40:24.926Z,1009.79
2017-03-31T06:41:05.466Z,1009.78
2017-03-31T06:41:46.015Z,1009.78
2017-03-31T06:42:26.544Z,1009.74
2017-03-31T06:43:07.068Z,1009.71
2017-03-31T06:43:47.594Z,1009.76
2017-03-31T06:44:28.123Z,1009.74
2017-03-31T06:45:08.661Z,1009.72
2017-03-31T06:45:49.193Z,1009.71
2017-03-31T06:46:29.710Z,1009.7
2017-03-31T06:47:10.239Z,1009.68
2017-03-31T06:47:50.780Z,1009.69
2017-03-31T06:48:31.334Z,1009.69
2017-03-31T06:49:11.876Z,1009.72
2017-03-31T06:49:52.430Z,1009.71
2017-03-31T06:50:32.927Z,1009.7
2017-03-31T06:51:13.465Z,1009.68
2017-03-31T06:51:53.982Z,1009.66
2017-03-31T06:52:34.528Z,1009.66
2017-03-31T06:53:15.065Z,1009.63
2017-03-31T06:53:55.587Z,1009.67
2017-03-31T06:54:36.107Z,1009.65
2017-03-31T06:55:16.630Z,1009.68
2017-03-31T06:55:57.165Z,1009.7
2017-03-31T06:56:37.692Z,1009.61
2017-03-31T06:57:18.212Z,1009.63
2017-03-31T06:57:58.728Z,1009.65
2017-03-31T06:58:39.236Z,1009.67
2017-03-31T06:59:19.779Z,1009.68
2017-03-31T07:00:00.307Z,1009.68
2017-03-31T07:00:40.842Z,1009.69
2017-03-31T07:01:21.374Z,1009.72
2017-03-31T07:02:01.881Z,1009.65
2017-03-31T07:02:42.397Z,1009.72
2017-03-31T07:03:22.927Z,1009.7
2017-03-31T07:04:03.468Z,1009.72
2017-03-31T07:04:44.010Z,1009.72
2017-03-31T07:05:24.530Z,1009.73
2017-03-31T07:06:05.052Z,1009.67
2017-03-31T07:06:45.591Z,1009.73
2017-03-31T07:07:26.122Z,1009.7
2017-03-31T07:08:06.663Z,1009.7
2017-03-31T07:08:47.174Z,1009.68
2017-03-31T07:09:27.703Z,1009.67
2017-03-31T07:10:08.244Z,1009.68
2017-03-31T07:10:48.781Z,1009.69
2017-03-31T07:11:29.333Z,1009.67
2017-03-31T07:12:09.836Z,1009.67
2017-03-31T07:12:50.376Z,1009.67
2017-03-31T07:13:30.897Z,1009.72
2017-03-31T07:14:11.429Z,1009.71
2017-03-31T07:14:51.951Z,1009.7
2017-03-31T07:15:32.471Z,1009.7
2017-03-31T07:16:12.997Z,1009.74
2017-03-31T07:16:53.558Z,1009.7
2017-03-31T07:17:34.097Z,1009.75
2017-03-31T07:18:14.640Z,1009.77
2017-03-31T07:18:55.176Z,1009.79
2017-03-31T07:19:35.717Z,1009.77
2017-03-31T07:20:16.226Z,1009.79
2017-03-31T07:20:56.748Z,1009.76
2017-03-31T07:21:37.277Z,1009.73
2017-03-31T07:22:17.802Z,1009.76
2017-03-31T07:22:58.402Z,1009.79
2017-03-31T07:23:38.940Z,1009.74
2017-03-31T07:24:19.485Z,1009.77
2017-03-31T07:25:00.013Z,1009.71
2017-03-31T07:25:40.531Z,1009.78
2017-03-31T07:26:21.068Z,1009.79
2017-03-31T07:27:01.603Z,1009.8
2017-03-31T07:27:42.135Z,1009.8
2017-03-31T07:28:22.683Z,1009.76
2017-03-31T07:29:03.207Z,1009.73
2017-03-31T07:29:43.730Z,1009.78
2017-03-31T07:30:24.264Z,1009.72
2017-03-31T07:31:04.797Z,1009.78
2017-03-31T07:31:45.358Z,1009.75
2017-03-31T07:32:25.868Z,1009.75
2017-03-31T07:33:06.383Z,1009.75
2017-03-31T07:33:46.911Z,1009.7
2017-03-31T07:34:27.440Z,1009.7
2017-03-31T07:35:07.989Z,1009.72
2017-03-31T07:35:48.512Z,1009.71
2017-03-31T07:36:29.034Z,1009.67
2017-03-31T07:37:09.567Z,1009.69
2017-03-31T07:37:50.100Z,1009.71
2017-03-31T07:38:30.633Z,1009.73
2017-03-31T07:39:11.176Z,1009.76
2017-03-31T07:39:51.697Z,1009.7
2017-03-31T07:40:32.219Z,1009.68
2017-03-31T07:41:12.744Z,1009.68
2017-03-31T07:41:53.270Z,1009.62
2017-03-31T07:42:33.787Z,1009.61
2017-03-31T07:43:14.323Z,1009.63
2017-03-31T07:43:54.870Z,1009.63
2017-03-31T07:44:35.398Z,1009.56
2017-03-31T07:45:15.934Z,1009.58
2017-03-31T07:45:56.474Z,1009.55
2017-03-31T07:46:37.003Z,1009.58
2017-03-31T07:47:17.526Z,1009.55
2017-03-31T07:47:58.067Z,1009.58
2017-03-31T07:48:38.598Z,1009.55
2017-03-31T07:49:19.120Z,1009.54
2017-03-31T07:49:59.651Z,1009.59
2017-03-31T07:50:40.190Z,1009.52
2017-03-31T07:51:20.722Z,1009.52
2017-03-31T07:52:01.272Z,1009.46
2017-03-31T07:52:41.802Z,1009.47
2017-03-31T07:53:22.342Z,1009.48
2017-03-31T07:54:02.852Z,1009.49
2017-03-31T07:54:43.393Z,1009.51
2017-03-31T07:55:23.914Z,1009.46
2017-03-31T07:56:04.449Z,1009.45
2017-03-31T07:56:44.950Z,1009.44
2017-03-31T07:57:25.477Z,1009.41
2017-03-31T07:58:06.002Z,1009.4
2017-03-31T07:58:46.531Z,1009.4
2017-03-31T07:59:27.035Z,1009.39
2017-03-31T08:00:07.572Z,1009.41
2017-03-31T08:00:48.098Z,1009.39
2017-03-31T08:01:28.630Z,1009.37
2017-03-31T08:02:09.151Z,1009.43
2017-03-31T08:02:49.683Z,1009.43
2017-03-31T08:03:30.215Z,1009.4
2017-03-31T08:04:10.746Z,1009.43
2017-03-31T08:04:51.270Z,1009.42
2017-03-31T08:05:31.801Z,1009.42
2017-03-31T08:06:12.333Z,1009.4
2017-03-31T08:06:52.877Z,1009.37
2017-03-31T08:07:33.402Z,1009.42
2017-03-31T08:08:13.928Z,1009.42
2017-03-31T08:08:54.461Z,1009.41
2017-03-31T08:09:34.988Z,1009.4
2017-03-31T08:10:15.519Z,1009.41
2017-03-31T08:10:56.054Z,1009.46
2017-03-31T08:11:36.576Z,1009.46
2017-03-31T08:12:17.104Z,1009.43
2017-03-31T08:12:57.636Z,1009.45
2017-03-31T08:13:38.175Z,1009.47